createdAt,value
2017-08-02T00:01:41.612Z,15.03
2017-08-02T00:04:09.244Z,12.20
2017-08-02T00:06:36.887Z,16.20
2017-08-02T00:09:04.644Z,14.37
2017-08-02T00:11:32.277Z,15.37
2017-08-02T00:14:00.125Z,17.00
2017-08-02T00:16:27.788Z,16.17
2017-08-02T00:18:55.425Z,15.23
2017-08-02T00:21:23.053Z,15.90
2017-08-02T00:23:51.023Z,16.13
2017-08-02T00:26:18.782Z,14.13
2017-08-02T00:28:46.403Z,13.77
2017-08-02T00:31:14.065Z,14.27
2017-08-02T00:33:41.704Z,16.20
2017-08-02T00:36:10.008Z,12.57
2017-08-02T00:38:37.669Z,14.33
2017-08-02T00:41:05.468Z,11.23
2017-08-02T00:43:33.102Z,11.50
2017-08-02T00:46:00.773Z,11.03
2017-08-02T00:48:28.402Z,10.67
2017-08-02T00:50:57.463Z,10.77
2017-08-02T00:53:25.162Z,10.97
2017-08-02T00:55:52.777Z,9.57
2017-08-02T00:58:20.389Z,11.10
2017-08-02T01:00:48.820Z,10.63
2017-08-02T01:03:16.431Z,9.90
2017-08-02T01:05:44.061Z,10.63
2017-08-02T01:08:12.403Z,12.87
2017-08-02T01:10:40.037Z,11.63
2017-08-02T01:13:07.878Z,10.30
2017-08-02T01:15:35.579Z,10.23
2017-08-02T01:18:03.212Z,13.20
2017-08-02T01:20:30.828Z,11.90
2017-08-02T01:22:58.710Z,10.93
2017-08-02T01:25:26.346Z,11.40
2017-08-02T01:27:53.977Z,13.07
2017-08-02T01:30:21.984Z,12.33
2017-08-02T01:32:50.266Z,12.50
2017-08-02T01:35:17.893Z,10.60
2017-08-02T01:37:45.562Z,12.97
2017-08-02T01:40:14.109Z,13.70
2017-08-02T01:42:41.757Z,11.53
2017-08-02T01:45:09.448Z,10.73
2017-08-02T01:47:37.105Z,12.50
2017-08-02T01:50:04.742Z,15.77
2017-08-02T01:52:32.509Z,15.30
2017-08-02T01:55:00.166Z,15.50
2017-08-02T01:57:27.825Z,16.70
2017-08-02T01:59:55.519Z,16.73
2017-08-02T02:02:23.182Z,15.13
2017-08-02T02:04:50.803Z,16.77
2017-08-02T02:07:18.471Z,19.23
2017-08-02T02:09:46.097Z,20.20
2017-08-02T02:12:13.722Z,18.00
2017-08-02T02:14:42.044Z,21.90
2017-08-02T02:17:10.437Z,21.50
2017-08-02T02:19:38.235Z,22.83
2017-08-02T02:22:05.916Z,20.07
2017-08-02T02:24:33.537Z,24.70
2017-08-02T02:27:01.161Z,22.37
2017-08-02T02:29:28.830Z,22.93
2017-08-02T02:31:56.452Z,24.33
2017-08-02T02:34:24.216Z,20.80
2017-08-02T02:36:51.899Z,19.80
2017-08-02T02:39:19.519Z,23.57
2017-08-02T02:41:47.145Z,24.80
2017-08-02T02:44:14.821Z,23.00
2017-08-02T02:46:42.458Z,26.00
2017-08-02T02:49:10.085Z,26.43
2017-08-02T02:51:37.753Z,24.20
2017-08-02T02:54:05.369Z,24.40
2017-08-02T02:56:33.754Z,10.10
2017-08-02T02:59:01.541Z,9.27
2017-08-02T03:01:29.157Z,9.37
2017-08-02T03:03:56.784Z,11.13
2017-08-02T03:06:24.443Z,10.93
2017-08-02T03:08:52.213Z,10.47
2017-08-02T03:11:19.885Z,8.53
2017-08-02T03:13:47.819Z,8.60
2017-08-02T03:16:15.449Z,10.53
2017-08-02T03:18:43.074Z,10.00
2017-08-02T03:21:10.770Z,12.10
2017-08-02T03:23:38.398Z,11.00
2017-08-02T03:26:06.017Z,8.73
2017-08-02T03:28:34.439Z,8.10
2017-08-02T03:31:02.058Z,8.40
2017-08-02T03:33:29.691Z,8.70
2017-08-02T03:35:57.352Z,8.70
2017-08-02T03:38:24.965Z,8.50
2017-08-02T03:40:52.586Z,8.00
2017-08-02T03:43:20.946Z,7.33
2017-08-02T03:45:48.568Z,8.10
2017-08-02T03:48:16.211Z,7.27
2017-08-02T03:50:44.649Z,7.50
2017-08-02T03:53:12.405Z,7.63
2017-08-02T03:55:40.153Z,8.07
2017-08-02T03:58:07.920Z,7.17
2017-08-02T04:00:35.542Z,8.30
2017-08-02T04:03:04.110Z,7.40
2017-08-02T04:05:32.369Z,7.00
2017-08-02T04:07:59.987Z,6.50
2017-08-02T04:10:27.604Z,7.83
2017-08-02T04:12:55.272Z,7.37
2017-08-02T04:15:22.893Z,7.57
2017-08-02T04:17:50.520Z,6.80
2017-08-02T04:20:18.549Z,7.50
2017-08-02T04:22:46.166Z,7.10
2017-08-02T04:25:13.779Z,7.80
2017-08-02T04:27:41.526Z,6.67
2017-08-02T04:30:09.157Z,6.77
2017-08-02T04:32:36.769Z,6.30
2017-08-02T04:35:04.440Z,5.90
2017-08-02T04:37:32.059Z,6.83
2017-08-02T04:39:59.680Z,7.30
2017-08-02T04:42:27.353Z,8.67
2017-08-02T04:44:55.728Z,8.47
2017-08-02T04:47:23.346Z,11.20
2017-08-02T04:49:51.011Z,14.10
2017-08-02T04:52:18.628Z,13.30
2017-08-02T04:54:46.249Z,14.70
2017-08-02T04:57:13.912Z,17.50
2017-08-02T04:59:41.543Z,16.80
2017-08-02T05:02:09.164Z,18.13
2017-08-02T05:04:38.134Z,18.77
2017-08-02T05:07:05.861Z,18.23
2017-08-02T05:09:33.488Z,17.60
2017-08-02T05:12:01.489Z,17.23
2017-08-02T05:14:29.286Z,16.23
2017-08-02T05:16:56.916Z,17.03
2017-08-02T05:19:24.585Z,19.20
2017-08-02T05:21:52.223Z,16.60
2017-08-02T05:24:19.875Z,16.77
2017-08-02T05:26:47.536Z,14.67
2017-08-02T05:29:15.169Z,14.70
2017-08-02T05:31:42.792Z,14.77
2017-08-02T05:34:10.703Z,13.80
2017-08-02T05:36:38.369Z,16.37
2017-08-02T05:39:06.631Z,14.80
2017-08-02T05:41:34.293Z,13.80
2017-08-02T05:44:02.233Z,13.83
2017-08-02T05:46:30.145Z,12.93
2017-08-02T05:48:57.831Z,11.83
2017-08-02T05:51:25.452Z,12.03
2017-08-02T05:53:53.078Z,12.27
2017-08-02T05:56:20.963Z,11.97
2017-08-02T05:58:48.643Z,9.73
2017-08-02T06:01:16.277Z,8.50
2017-08-02T06:03:43.953Z,7.33
2017-08-02T06:06:11.576Z,8.20
2017-08-02T06:08:39.503Z,8.37
2017-08-02T06:11:07.172Z,7.60
2017-08-02T06:13:34.809Z,7.60
2017-08-02T06:16:02.436Z,6.80
2017-08-02T06:18:30.912Z,6.60
2017-08-02T06:20:58.568Z,5.93
2017-08-02T06:23:26.246Z,6.30
2017-08-02T06:25:53.932Z,6.33
2017-08-02T06:28:21.562Z,5.80
2017-08-02T06:30:49.188Z,5.67
2017-08-02T06:33:16.852Z,5.80
2017-08-02T06:35:44.584Z,5.77
2017-08-02T06:38:12.383Z,5.03
2017-08-02T06:40:40.076Z,5.00
2017-08-02T06:43:07.710Z,5.57
2017-08-02T06:45:35.321Z,5.30
2017-08-02T06:48:03.756Z,5.40
2017-08-02T06:50:31.388Z,5.77
2017-08-02T06:52:59.004Z,5.60
2017-08-02T06:55:26.672Z,5.53
2017-08-02T06:57:54.300Z,5.23
2017-08-02T07:00:21.916Z,4.83
2017-08-02T07:02:50.408Z,5.07
2017-08-02T07:05:18.034Z,4.53
2017-08-02T07:07:45.664Z,4.83
2017-08-02T07:10:13.337Z,4.23
2017-08-02T07:12:40.952Z,4.20
2017-08-02T07:15:08.778Z,4.23
2017-08-02T07:17:36.629Z,4.50
2017-08-02T07:20:04.251Z,4.77
2017-08-02T07:22:31.873Z,4.73
2017-08-02T07:24:59.544Z,4.83
2017-08-02T07:27:27.168Z,5.57
2017-08-02T07:29:54.792Z,4.90
2017-08-02T07:32:23.223Z,5.30
2017-08-02T07:34:50.991Z,5.00
2017-08-02T07:37:18.618Z,5.57
2017-08-02T07:39:46.313Z,5.47
2017-08-02T07:42:13.927Z,4.77
2017-08-02T07:44:42.337Z,5.43
2017-08-02T07:47:10.040Z,4.30
2017-08-02T07:49:37.661Z,4.47
2017-08-02T07:52:05.285Z,5.00
2017-08-02T07:54:33.809Z,5.47
2017-08-02T07:57:01.424Z,4.77
2017-08-02T07:59:29.258Z,4.50
2017-08-02T08:01:56.945Z,4.40
2017-08-02T08:04:24.568Z,4.57
2017-08-02T08:06:52.188Z,4.30
2017-08-02T14:07:37.833Z,8.67
2017-08-02T14:10:05.480Z,8.77
2017-08-02T14:12:33.140Z,7.97
2017-08-02T14:15:00.811Z,7.90
2017-08-02T14:17:28.473Z,8.30
2017-08-02T14:19:56.103Z,8.87
2017-08-02T14:22:23.766Z,8.53
2017-08-02T14:24:51.634Z,8.47
2017-08-02T14:27:19.276Z,8.97
2017-08-02T14:29:46.933Z,8.43
2017-08-02T14:32:14.551Z,9.57
2017-08-02T14:34:42.790Z,8.20
2017-08-02T14:37:10.677Z,9.10
2017-08-02T14:39:38.290Z,9.43
2017-08-02T14:42:05.912Z,8.40
2017-08-02T14:44:33.588Z,8.63
2017-08-02T14:47:02.124Z,8.60
2017-08-02T14:49:29.902Z,9.27
2017-08-02T14:51:57.856Z,8.43
2017-08-02T14:54:25.484Z,9.20
2017-08-02T14:56:53.417Z,9.80
2017-08-02T14:59:21.078Z,8.03
2017-08-02T15:01:48.948Z,8.80
2017-08-02T15:04:16.571Z,9.40
2017-08-02T15:06:44.263Z,8.57
2017-08-02T15:09:11.877Z,9.70
2017-08-02T15:11:39.508Z,8.10
2017-08-02T15:14:07.181Z,8.57
2017-08-02T15:16:34.788Z,8.67
2017-08-02T15:19:02.411Z,8.30
2017-08-02T15:21:30.851Z,9.20
2017-08-02T15:23:58.472Z,8.87
2017-08-02T15:26:26.744Z,8.77
2017-08-02T15:28:54.412Z,9.20
2017-08-02T15:31:22.812Z,8.43
2017-08-02T15:33:50.437Z,8.53
2017-08-02T15:36:18.105Z,7.70
2017-08-02T15:38:45.729Z,10.23
2017-08-02T15:41:13.352Z,11.10
2017-08-02T15:43:41.028Z,10.00
2017-08-02T15:46:08.817Z,9.80
2017-08-02T15:48:36.434Z,10.20
2017-08-02T15:51:04.141Z,8.50
2017-08-02T15:53:31.803Z,8.17
2017-08-02T15:55:59.418Z,8.83
2017-08-02T15:58:27.096Z,8.80
2017-08-02T16:00:54.708Z,9.23
2017-08-02T16:03:22.558Z,9.13
2017-08-02T16:05:50.233Z,8.43
2017-08-02T16:08:17.869Z,9.57
2017-08-02T16:10:45.492Z,8.73
2017-08-02T16:13:13.942Z,8.77
2017-08-02T16:15:41.692Z,9.63
2017-08-02T16:18:09.301Z,8.47
2017-08-02T16:20:36.970Z,9.40
2017-08-02T16:23:04.599Z,9.10
2017-08-02T16:25:32.220Z,8.07
2017-08-02T16:28:00.035Z,8.80
2017-08-02T16:30:27.657Z,8.60
2017-08-02T16:32:55.436Z,9.20
2017-08-02T16:35:23.120Z,7.90
2017-08-02T16:37:50.931Z,8.33
2017-08-02T16:40:18.553Z,7.07
2017-08-02T16:42:46.226Z,9.30
2017-08-02T16:45:13.850Z,8.23
2017-08-02T16:47:41.492Z,7.90
2017-08-02T16:50:09.141Z,9.30
2017-08-02T16:52:36.796Z,8.03
2017-08-02T16:55:04.712Z,8.23
2017-08-02T16:57:32.393Z,8.50
2017-08-02T17:00:00.012Z,8.87
2017-08-02T17:02:27.623Z,8.80
2017-08-02T17:04:55.293Z,8.10
2017-08-02T17:07:22.934Z,8.60
2017-08-02T17:09:50.901Z,8.93
2017-08-02T17:12:18.602Z,8.27
2017-08-02T17:14:46.529Z,8.23
2017-08-02T17:17:14.600Z,8.57
2017-08-02T17:19:42.277Z,7.70
2017-08-02T17:22:09.901Z,8.13
2017-08-02T17:24:37.524Z,8.00
2017-08-02T17:27:05.196Z,8.90
2017-08-02T17:29:32.825Z,9.23
2017-08-02T17:32:00.448Z,8.07
2017-08-02T17:34:28.117Z,7.87
2017-08-02T17:36:55.744Z,7.60
2017-08-02T17:39:24.133Z,7.10
2017-08-02T17:41:51.820Z,7.83
2017-08-02T17:44:19.444Z,8.20
2017-08-02T17:46:47.075Z,7.73
2017-08-02T17:49:14.850Z,8.07
2017-08-02T17:51:42.457Z,8.73
2017-08-02T17:54:10.084Z,8.20
2017-08-02T17:56:37.777Z,9.33
2017-08-02T17:59:05.420Z,8.63
2017-08-02T18:01:33.062Z,9.50
2017-08-02T18:04:00.748Z,9.90
2017-08-02T18:06:28.373Z,8.90
2017-08-02T18:08:56.001Z,10.00
2017-08-02T18:11:23.676Z,9.10
2017-08-02T18:13:51.300Z,10.13
2017-08-02T18:16:19.692Z,14.03
2017-08-02T18:18:48.173Z,38.70
2017-08-02T18:21:15.789Z,27.00
2017-08-02T18:23:43.420Z,36.50
2017-08-02T18:26:11.093Z,25.03
2017-08-02T18:28:38.766Z,14.90
2017-08-02T18:31:06.395Z,13.73
2017-08-02T18:33:34.080Z,12.10
2017-08-02T18:36:01.777Z,9.57
2017-08-02T18:38:29.396Z,9.63
2017-08-02T18:40:57.136Z,10.00
2017-08-02T18:43:24.765Z,10.30
2017-08-02T18:45:52.584Z,10.97
2017-08-02T18:48:20.296Z,11.93
2017-08-02T18:50:47.929Z,13.00
2017-08-02T18:53:16.115Z,12.13
2017-08-02T18:55:44.311Z,13.00
2017-08-02T18:58:11.932Z,13.83
2017-08-02T19:00:39.567Z,13.27
2017-08-02T19:03:07.593Z,12.00
2017-08-02T19:05:35.274Z,10.90
2017-08-02T19:08:02.894Z,10.60
2017-08-02T19:10:30.781Z,11.17
2017-08-02T19:12:58.400Z,14.17
2017-08-02T19:15:26.112Z,13.53
2017-08-02T19:17:53.765Z,11.50
2017-08-02T19:20:21.402Z,12.40
2017-08-02T19:22:49.019Z,12.93
2017-08-02T19:25:16.709Z,11.30
2017-08-02T19:27:44.341Z,11.77
2017-08-02T19:30:11.982Z,10.80
2017-08-02T19:32:39.709Z,10.53
2017-08-02T19:35:07.328Z,13.70
2017-08-02T19:37:34.956Z,13.30
2017-08-02T19:40:02.619Z,12.10
2017-08-02T19:42:30.252Z,13.00
2017-08-02T19:44:59.318Z,14.33
2017-08-02T19:47:27.012Z,13.20
2017-08-02T19:49:55.400Z,10.40
2017-08-02T19:52:23.794Z,11.03
2017-08-02T19:54:51.479Z,12.47
2017-08-02T19:57:19.096Z,13.97
2017-08-02T19:59:46.723Z,13.63
2017-08-02T20:02:14.606Z,12.30
2017-08-02T20:04:42.240Z,15.73
2017-08-02T20:07:09.862Z,13.10
2017-08-02T20:09:38.144Z,12.13
2017-08-02T20:12:05.791Z,12.13
2017-08-02T20:14:33.418Z,15.30
2017-08-02T20:17:01.104Z,14.00
2017-08-02T20:19:28.730Z,14.33
2017-08-02T20:21:56.360Z,12.83
2017-08-02T20:24:24.036Z,12.90
2017-08-02T20:26:51.661Z,14.57
2017-08-02T20:29:19.383Z,15.40
2017-08-02T20:31:47.458Z,15.60
2017-08-02T20:34:15.093Z,15.40
2017-08-02T20:36:42.905Z,13.60
2017-08-02T20:39:10.708Z,13.93
2017-08-02T20:41:40.094Z,12.53
2017-08-02T20:44:09.363Z,12.93
2017-08-02T20:46:37.374Z,14.17
2017-08-02T20:49:06.134Z,14.73
2017-08-02T20:51:35.925Z,14.50
2017-08-02T20:54:04.663Z,14.63
2017-08-02T20:56:33.408Z,16.03
2017-08-02T20:59:02.099Z,15.53
2017-08-02T21:01:30.038Z,16.23
2017-08-02T21:03:59.623Z,16.47
2017-08-02T21:06:27.701Z,16.20
2017-08-02T21:08:57.177Z,16.50
2017-08-02T21:11:25.144Z,15.13
2017-08-02T21:13:53.724Z,14.90
2017-08-02T21:16:21.621Z,15.63
2017-08-02T21:18:49.647Z,15.20
2017-08-02T21:21:18.127Z,14.83
2017-08-02T21:23:46.135Z,15.83
2017-08-02T21:26:13.990Z,16.73
2017-08-02T21:28:43.366Z,16.40
2017-08-02T21:31:12.471Z,16.30
2017-08-02T21:33:42.715Z,15.37
2017-08-02T21:36:10.592Z,15.40
2017-08-02T21:38:41.679Z,14.00
2017-08-02T21:41:09.959Z,15.53
2017-08-02T21:43:37.971Z,14.57
2017-08-02T21:46:05.982Z,17.37
2017-08-02T21:48:36.143Z,15.20
2017-08-02T21:51:05.421Z,16.60
2017-08-02T21:53:34.348Z,15.03
2017-08-02T21:56:02.401Z,15.53
2017-08-02T21:58:30.238Z,15.60
2017-08-02T22:01:01.005Z,14.77
2017-08-02T22:03:29.988Z,18.20
2017-08-02T22:05:57.862Z,18.50
2017-08-02T22:08:25.732Z,16.77
2017-08-02T22:10:54.938Z,15.60
2017-08-02T22:13:22.571Z,15.10
2017-08-02T22:15:50.196Z,17.40
2017-08-02T22:18:18.510Z,17.73
2017-08-02T22:20:46.132Z,17.90
2017-08-02T22:23:13.756Z,16.90
2017-08-02T22:25:41.453Z,18.20
2017-08-02T22:28:10.100Z,17.57
2017-08-02T22:30:37.719Z,17.77
2017-08-02T22:33:05.637Z,15.43
2017-08-02T22:35:33.266Z,16.60
2017-08-02T22:38:00.888Z,15.90
2017-08-02T22:40:29.904Z,16.80
2017-08-02T22:42:57.530Z,15.60
2017-08-02T22:45:25.158Z,16.23
2017-08-02T22:47:52.838Z,18.87
2017-08-02T22:50:20.458Z,16.00
2017-08-02T22:52:48.098Z,15.80
2017-08-02T22:55:16.802Z,17.73
2017-08-02T22:57:44.421Z,16.77
2017-08-02T23:00:12.060Z,18.10
2017-08-02T23:02:39.743Z,18.17
2017-08-02T23:05:07.366Z,16.33
2017-08-02T23:07:34.995Z,15.83
2017-08-02T23:10:03.457Z,16.10
2017-08-02T23:12:31.083Z,18.13
2017-08-02T23:14:58.709Z,17.07
2017-08-02T23:17:26.409Z,17.87
2017-08-02T23:19:54.024Z,18.17
2017-08-02T23:22:21.661Z,15.70
2017-08-02T23:24:49.328Z,19.17
2017-08-02T23:27:16.954Z,18.37
2017-08-02T23:29:44.632Z,16.30
2017-08-02T23:32:12.619Z,19.10
2017-08-02T23:34:41.002Z,18.63
2017-08-02T23:37:08.624Z,17.43
2017-08-02T23:39:36.292Z,18.40
2017-08-02T23:42:04.076Z,17.10
2017-08-02T23:44:31.751Z,18.77
2017-08-02T23:47:00.158Z,18.30
2017-08-02T23:49:28.593Z,19.40
2017-08-02T23:51:56.218Z,17.30
2017-08-02T23:54:23.978Z,17.50
2017-08-02T23:56:51.610Z,19.50
2017-08-02T23:59:19.233Z,18.73
